createdAt,value
2018-12-20T00:00:12.705Z,-6.19
2018-12-20T00:02:48.986Z,-6.10
2018-12-20T00:05:25.122Z,-5.73
2018-12-20T00:08:01.848Z,-5.46
2018-12-20T00:10:38.243Z,-5.09
2018-12-20T00:13:14.755Z,-4.85
2018-12-20T00:15:50.872Z,-4.78
2018-12-20T00:18:26.875Z,-4.81
2018-12-20T00:21:02.952Z,-4.89
2018-12-20T00:23:39.403Z,-4.85
2018-12-20T00:26:16.022Z,-4.79
2018-12-20T00:28:52.165Z,-5.07
2018-12-20T00:31:28.452Z,-5.09
2018-12-20T00:34:04.685Z,-5.36
2018-12-20T00:36:41.259Z,-5.45
2018-12-20T00:39:17.794Z,-5.08
2018-12-20T00:41:53.987Z,-4.97
2018-12-20T00:44:37.267Z,-5.07
2018-12-20T00:47:08.237Z,-5.30
2018-12-20T00:49:44.534Z,-5.14
2018-12-20T00:52:20.641Z,-4.87
2018-12-20T00:54:56.563Z,-4.82
2018-12-20T00:57:33.199Z,-5.23
2018-12-20T01:00:12.026Z,-5.57
2018-12-20T01:02:55.040Z,-5.63
2018-12-20T01:05:26.822Z,-5.39
2018-12-20T01:08:04.157Z,-5.08
2018-12-20T01:10:41.166Z,-5.00
2018-12-20T01:13:17.063Z,-5.01
2018-12-20T01:15:53.673Z,-4.83
2018-12-20T01:18:29.869Z,-4.90
2018-12-20T01:21:05.874Z,-5.58
2018-12-20T01:23:42.586Z,-6.13
2018-12-20T01:26:18.887Z,-6.28
2018-12-20T01:28:54.688Z,-6.40
2018-12-20T01:31:30.706Z,-6.04
2018-12-20T01:34:06.811Z,-6.09
2018-12-20T01:36:42.848Z,-6.30
2018-12-20T01:39:19.242Z,-6.24
2018-12-20T01:41:55.257Z,-6.08
2018-12-20T01:44:31.433Z,-5.80
2018-12-20T01:54:19.933Z,-5.25
2018-12-20T01:56:56.689Z,-5.20
2018-12-20T01:59:33.001Z,-5.15
2018-12-20T02:02:09.352Z,-4.99
2018-12-20T02:04:46.349Z,-4.93
2018-12-20T02:07:22.405Z,-4.95
2018-12-20T02:09:59.127Z,-4.98
2018-12-20T02:12:36.201Z,-5.25
2018-12-20T02:15:12.486Z,-5.68
2018-12-20T02:17:48.754Z,-5.75
2018-12-20T02:20:24.851Z,-5.48
2018-12-20T02:23:00.950Z,-5.18
2018-12-20T02:25:37.637Z,-5.11
2018-12-20T02:28:13.659Z,-5.22
2018-12-20T02:30:50.334Z,-5.71
2018-12-20T02:33:28.366Z,-6.09
2018-12-20T02:36:04.740Z,-6.36
2018-12-20T02:38:41.264Z,-6.34
2018-12-20T02:41:17.448Z,-6.15
2018-12-20T02:43:53.679Z,-6.25
2018-12-20T02:46:30.871Z,-6.13
2018-12-20T02:49:07.127Z,-5.75
2018-12-20T02:51:43.095Z,-5.71
2018-12-20T02:54:19.313Z,-5.85
2018-12-20T02:56:55.946Z,-6.01
2018-12-20T02:59:32.184Z,-5.85
2018-12-20T03:02:08.783Z,-5.72
2018-12-20T03:04:45.228Z,-5.58
2018-12-20T03:07:21.614Z,-5.54
2018-12-20T03:09:57.676Z,-5.14
2018-12-20T03:12:34.170Z,-5.13
2018-12-20T03:15:19.715Z,-5.44
2018-12-20T03:17:49.160Z,-5.65
2018-12-20T03:20:25.380Z,-5.61
2018-12-20T03:23:02.100Z,-5.66
2018-12-20T03:25:39.602Z,-5.84
2018-12-20T03:28:16.018Z,-6.02
2018-12-20T03:30:52.540Z,-5.96
2018-12-20T03:33:29.053Z,-5.56
2018-12-20T03:36:05.929Z,-5.27
2018-12-20T03:38:42.427Z,-5.00
2018-12-20T03:41:18.734Z,-4.78
2018-12-20T03:43:55.379Z,-4.70
2018-12-20T03:46:31.873Z,-4.59
2018-12-20T03:49:08.157Z,-4.60
2018-12-20T03:51:47.287Z,-4.59
2018-12-20T03:54:23.807Z,-4.59
2018-12-20T03:57:00.269Z,-4.51
2018-12-20T03:59:36.422Z,-4.50
2018-12-20T04:02:12.689Z,-4.37
2018-12-20T04:04:49.017Z,-4.29
2018-12-20T04:07:25.153Z,-4.30
2018-12-20T04:10:01.835Z,-4.29
2018-12-20T04:12:38.453Z,-4.34
2018-12-20T04:15:15.080Z,-4.34
2018-12-20T04:17:51.374Z,-4.19
2018-12-20T04:20:28.010Z,-4.23
2018-12-20T04:23:04.769Z,-4.22
2018-12-20T04:25:41.321Z,-4.27
2018-12-20T04:28:17.675Z,-4.34
2018-12-20T04:30:55.132Z,-4.37
2018-12-20T04:33:31.529Z,-4.58
2018-12-20T04:36:07.684Z,-4.69
2018-12-20T04:38:44.549Z,-4.42
2018-12-20T04:41:21.140Z,-4.40
2018-12-20T04:43:57.131Z,-4.43
2018-12-20T04:46:33.583Z,-4.49
2018-12-20T04:49:09.779Z,-4.34
2018-12-20T04:51:46.314Z,-4.30
2018-12-20T04:54:22.789Z,-4.17
2018-12-20T04:56:58.893Z,-4.04
2018-12-20T04:59:35.126Z,-4.24
2018-12-20T05:02:11.990Z,-4.39
2018-12-20T05:04:48.577Z,-4.08
2018-12-20T05:07:24.880Z,-4.14
2018-12-20T05:10:01.939Z,-4.27
2018-12-20T05:12:38.464Z,-4.20
2018-12-20T05:15:15.019Z,-4.80
2018-12-20T05:18:16.715Z,-4.56
2018-12-20T05:21:08.138Z,-4.86
2018-12-20T05:23:44.841Z,-5.07
2018-12-20T05:26:21.774Z,-5.39
2018-12-20T05:28:58.015Z,-5.62
2018-12-20T05:31:34.025Z,-5.63
2018-12-20T05:34:10.194Z,-5.15
2018-12-20T05:36:46.429Z,-4.92
2018-12-20T05:39:23.197Z,-5.43
2018-12-20T05:41:59.216Z,-5.15
2018-12-20T05:44:35.273Z,-5.24
2018-12-20T05:47:11.375Z,-5.09
2018-12-20T05:49:47.674Z,-5.01
2018-12-20T05:52:24.084Z,-4.74
2018-12-20T05:55:00.465Z,-4.77
2018-12-20T05:57:36.479Z,-4.67
2018-12-20T06:00:12.782Z,-4.74
2018-12-20T06:02:49.341Z,-4.70
2018-12-20T06:05:25.944Z,-4.71
2018-12-20T06:08:01.941Z,-5.00
2018-12-20T06:10:38.341Z,-5.34
2018-12-20T06:13:14.569Z,-5.20
2018-12-20T06:15:51.131Z,-5.05
2018-12-20T06:18:27.634Z,-4.32
2018-12-20T06:21:04.220Z,-4.25
2018-12-20T06:23:40.153Z,-4.43
2018-12-20T06:26:16.214Z,-4.40
2018-12-20T06:30:16.587Z,-4.83
2018-12-20T06:32:52.850Z,-4.73
2018-12-20T06:35:28.886Z,-4.77
2018-12-20T06:38:05.027Z,-4.79
2018-12-20T06:40:40.970Z,-4.73
2018-12-20T06:43:17.071Z,-4.37
2018-12-20T06:45:52.896Z,-4.45
2018-12-20T06:48:28.975Z,-4.44
2018-12-20T06:51:07.911Z,-4.63
2018-12-20T06:54:01.283Z,-4.73
2018-12-20T06:56:39.482Z,-4.58
2018-12-20T06:59:15.576Z,-4.21
2018-12-20T07:01:51.594Z,-4.11
2018-12-20T07:04:27.789Z,-3.79
2018-12-20T07:07:04.027Z,-4.33
2018-12-20T07:09:40.118Z,-4.40
2018-12-20T07:12:16.183Z,-4.80
2018-12-20T07:14:52.277Z,-4.62
2018-12-20T07:17:31.862Z,-4.32
2018-12-20T07:20:09.033Z,-4.34
2018-12-20T07:22:45.010Z,-4.08
2018-12-20T07:25:21.166Z,-4.00
2018-12-20T07:27:57.115Z,-4.04
2018-12-20T07:30:33.205Z,-4.22
2018-12-20T07:33:09.014Z,-3.96
2018-12-20T07:35:45.349Z,-3.78
2018-12-20T07:38:21.359Z,-4.06
2018-12-20T07:40:57.391Z,-4.22
2018-12-20T07:43:33.476Z,-4.38
2018-12-20T07:46:09.619Z,-3.85
2018-12-20T07:48:45.682Z,-3.71
2018-12-20T07:51:21.726Z,-3.66
2018-12-20T08:00:54.460Z,-3.06
2018-12-20T08:03:30.654Z,-2.79
2018-12-20T08:06:06.441Z,-2.75
2018-12-20T08:08:42.484Z,-3.56
2018-12-20T08:11:19.892Z,-3.58
2018-12-20T08:13:55.848Z,-3.06
2018-12-20T08:16:31.966Z,-2.98
2018-12-20T08:19:07.927Z,-3.02
2018-12-20T08:21:44.037Z,-2.73
2018-12-20T08:24:20.066Z,-2.66
2018-12-20T08:26:56.147Z,-2.50
2018-12-20T08:29:32.171Z,-2.36
2018-12-20T08:32:08.562Z,-2.19
2018-12-20T08:34:44.620Z,-2.11
2018-12-20T08:37:20.730Z,-2.08
2018-12-20T08:39:56.713Z,-1.94
2018-12-20T08:42:32.834Z,-1.67
2018-12-20T08:45:08.944Z,-2.01
2018-12-20T08:47:45.547Z,-2.19
2018-12-20T08:50:22.601Z,-2.41
2018-12-20T08:52:58.807Z,-2.18
2018-12-20T08:55:34.943Z,-2.11
2018-12-20T08:58:11.022Z,-2.22
2018-12-20T09:00:47.027Z,-2.37
2018-12-20T09:03:23.190Z,-2.35
2018-12-20T09:05:59.490Z,-2.56
2018-12-20T09:08:35.583Z,-2.76
2018-12-20T09:11:11.719Z,-2.66
2018-12-20T09:13:47.705Z,-1.86
2018-12-20T09:16:24.682Z,-1.69
2018-12-20T09:19:00.796Z,-1.25
2018-12-20T09:21:36.745Z,-1.38
2018-12-20T09:24:13.128Z,-1.17
2018-12-20T09:26:50.625Z,-0.93
2018-12-20T09:29:26.990Z,-0.62
2018-12-20T09:32:03.189Z,-0.37
2018-12-20T09:34:39.333Z,-0.32
2018-12-20T09:37:15.765Z,-0.17
2018-12-20T09:41:16.325Z,-0.14
2018-12-20T09:43:52.176Z,0.03
2018-12-20T09:46:28.292Z,-0.22
2018-12-20T09:49:05.416Z,-0.67
2018-12-20T09:51:42.129Z,-0.43
2018-12-20T09:54:18.456Z,-0.91
2018-12-20T09:56:54.398Z,-0.78
2018-12-20T09:59:30.404Z,-0.59
2018-12-20T10:02:06.520Z,-0.34
2018-12-20T10:04:42.551Z,-0.17
2018-12-20T10:07:18.715Z,-0.23
2018-12-20T10:09:54.929Z,0.23
2018-12-20T10:12:31.051Z,0.39
2018-12-20T10:15:08.634Z,0.55
2018-12-20T10:17:45.999Z,0.58
2018-12-20T10:20:21.965Z,0.34
2018-12-20T10:24:22.174Z,0.05
2018-12-20T10:26:58.309Z,-0.59
2018-12-20T10:29:34.359Z,-0.66
2018-12-20T10:32:10.781Z,-0.39
2018-12-20T10:34:47.089Z,-0.24
2018-12-20T10:37:23.106Z,-0.29
2018-12-20T10:39:59.634Z,-0.24
2018-12-20T10:42:35.833Z,0.08
2018-12-20T10:45:11.625Z,0.35
2018-12-20T10:47:47.660Z,0.65
2018-12-20T10:50:23.798Z,0.77
2018-12-20T10:53:00.180Z,0.78
2018-12-20T10:55:36.215Z,1.07
2018-12-20T10:58:12.498Z,1.22
2018-12-20T11:00:53.637Z,1.44
2018-12-20T11:03:35.114Z,1.54
2018-12-20T11:06:16.317Z,1.37
2018-12-20T11:08:58.007Z,1.47
2018-12-20T11:11:39.115Z,1.54
2018-12-20T11:14:15.282Z,1.54
2018-12-20T11:16:51.381Z,1.82
2018-12-20T11:19:27.403Z,2.10
2018-12-20T11:22:03.513Z,2.37
2018-12-20T11:24:39.527Z,2.55
2018-12-20T11:27:15.688Z,2.55
2018-12-20T11:29:51.937Z,2.51
2018-12-20T11:32:28.086Z,2.61
2018-12-20T11:35:04.190Z,2.94
2018-12-20T11:37:40.188Z,3.14
2018-12-20T11:40:16.211Z,3.29
2018-12-20T11:42:52.306Z,3.62
2018-12-20T11:45:28.310Z,3.79
2018-12-20T11:48:04.429Z,3.54
2018-12-20T11:50:40.447Z,3.60
2018-12-20T11:53:16.364Z,3.67
2018-12-20T11:55:52.878Z,3.54
2018-12-20T11:58:29.006Z,3.52
2018-12-20T12:01:04.987Z,3.44
2018-12-20T12:03:41.117Z,3.50
2018-12-20T12:06:17.105Z,3.49
2018-12-20T12:08:52.891Z,3.55
2018-12-20T12:11:28.944Z,3.65
2018-12-20T12:14:05.523Z,3.55
2018-12-20T12:16:41.343Z,3.91
2018-12-20T12:19:17.461Z,3.80
2018-12-20T12:21:53.797Z,3.52
2018-12-20T12:24:29.886Z,3.13
2018-12-20T12:27:05.953Z,3.37
2018-12-20T12:29:42.074Z,3.77
2018-12-20T12:32:18.007Z,4.14
2018-12-20T12:34:54.128Z,4.24
2018-12-20T12:37:30.110Z,4.44
2018-12-20T12:40:07.983Z,4.19
2018-12-20T12:42:44.573Z,4.59
2018-12-20T12:45:20.590Z,4.83
2018-12-20T12:48:03.716Z,5.30
2018-12-20T12:50:40.323Z,5.57
2018-12-20T12:53:16.466Z,5.98
2018-12-20T12:55:52.280Z,5.86
2018-12-20T12:58:28.451Z,5.38
2018-12-20T13:01:04.923Z,5.29
2018-12-20T13:03:41.327Z,5.88
2018-12-20T13:06:17.751Z,6.45
2018-12-20T13:08:53.591Z,6.99
2018-12-20T13:11:29.729Z,7.45
2018-12-20T13:14:05.748Z,8.04
2018-12-20T13:16:41.890Z,8.04
2018-12-20T13:19:17.853Z,7.65
2018-12-20T13:21:53.995Z,6.63
2018-12-20T13:24:30.287Z,7.08
2018-12-20T13:27:06.733Z,7.61
2018-12-20T13:29:45.287Z,8.35
2018-12-20T13:32:21.365Z,8.85
2018-12-20T13:35:08.158Z,9.09
2018-12-20T13:37:52.678Z,7.91
2018-12-20T13:40:45.406Z,6.26
2018-12-20T13:43:26.312Z,5.41
2018-12-20T13:49:17.121Z,4.43
2018-12-20T13:52:09.457Z,3.84
2018-12-20T13:54:51.924Z,3.20
2018-12-20T13:57:28.042Z,3.16
2018-12-20T14:00:06.037Z,2.76
2018-12-20T14:02:41.948Z,2.59
2018-12-20T14:05:17.955Z,2.33
2018-12-20T14:07:58.835Z,2.18
2018-12-20T14:10:31.818Z,2.12
2018-12-20T14:13:07.805Z,1.97
2018-12-20T14:15:43.912Z,1.89
2018-12-20T14:18:19.923Z,1.43
2018-12-20T14:20:55.769Z,1.16
2018-12-20T14:23:32.042Z,0.85
2018-12-20T14:26:08.174Z,0.63
2018-12-20T14:28:44.488Z,0.46
2018-12-20T14:31:20.609Z,0.22
2018-12-20T14:33:59.529Z,0.66
2018-12-20T14:36:35.790Z,0.24
2018-12-20T14:39:11.799Z,0.06
2018-12-20T14:41:48.181Z,0.35
2018-12-20T14:44:19.361Z,0.08
2018-12-20T14:46:50.542Z,0.10
2018-12-20T14:49:21.620Z,0.30
2018-12-20T14:51:52.889Z,0.16
2018-12-20T14:54:23.932Z,0.31
2018-12-20T14:56:55.373Z,0.36
2018-12-20T14:59:26.514Z,0.37
2018-12-20T15:01:57.697Z,0.44
2018-12-20T15:04:28.782Z,0.36
2018-12-20T15:07:00.117Z,0.21
2018-12-20T15:09:31.083Z,0.17
2018-12-20T15:12:03.456Z,0.08
2018-12-20T15:14:35.214Z,0.08
2018-12-20T15:17:06.422Z,0.14
2018-12-20T15:19:37.524Z,0.15
2018-12-20T15:22:08.734Z,0.04
2018-12-20T15:24:39.804Z,0.07
2018-12-20T15:27:10.998Z,-0.06
2018-12-20T15:29:42.463Z,-0.09
2018-12-20T15:32:19.886Z,0.00
2018-12-20T15:34:56.548Z,-0.29
2018-12-20T15:40:36.181Z,-0.30
2018-12-20T15:43:21.667Z,-0.35
2018-12-20T15:46:16.986Z,-0.54
2018-12-20T15:49:57.605Z,-0.50
2018-12-20T15:55:47.139Z,-0.40
2018-12-20T15:58:20.779Z,-0.61
2018-12-20T16:00:54.377Z,-1.04
2018-12-20T16:03:30.549Z,-1.28
2018-12-20T16:08:39.792Z,-1.41
2018-12-20T16:11:11.065Z,-1.51
2018-12-20T16:13:42.282Z,-1.22
2018-12-20T16:16:13.361Z,-0.82
2018-12-20T16:18:44.563Z,-0.82
2018-12-20T16:21:18.442Z,-0.70
2018-12-20T16:23:49.599Z,-0.71
2018-12-20T16:26:20.729Z,-1.06
2018-12-20T16:28:51.935Z,-1.45
2018-12-20T16:31:23.469Z,-1.55
2018-12-20T16:33:56.185Z,-1.57
2018-12-20T16:36:28.051Z,-1.27
2018-12-20T16:38:59.242Z,-1.23
2018-12-20T16:41:30.405Z,-1.21
2018-12-20T16:44:01.534Z,-1.25
2018-12-20T16:46:32.637Z,-1.41
2018-12-20T16:49:03.830Z,-1.55
2018-12-20T16:51:35.122Z,-1.51
2018-12-20T16:54:08.821Z,-1.38
2018-12-20T16:56:43.874Z,-1.45
2018-12-20T16:59:20.487Z,-1.70
2018-12-20T17:01:57.984Z,-1.57
2018-12-20T17:04:36.751Z,-1.82
2018-12-20T17:07:16.239Z,-1.56
2018-12-20T17:09:53.861Z,-1.41
2018-12-20T17:12:33.204Z,-1.36
2018-12-20T17:15:07.621Z,-1.34
2018-12-20T17:20:40.638Z,-1.15
2018-12-20T17:23:26.033Z,-1.33
2018-12-20T17:26:04.102Z,-1.95
2018-12-20T17:28:40.124Z,-2.29
2018-12-20T17:31:15.716Z,-2.05
2018-12-20T17:33:53.726Z,-1.85
2018-12-20T17:36:27.207Z,-1.80
2018-12-20T17:39:04.453Z,-1.67
2018-12-20T17:41:36.420Z,-1.53
2018-12-20T17:44:07.496Z,-1.70
2018-12-20T17:46:38.670Z,-1.42
2018-12-20T17:49:09.754Z,-1.39
2018-12-20T17:53:07.558Z,-1.48
2018-12-20T17:55:44.934Z,-1.80
2018-12-20T17:58:14.148Z,-2.09
2018-12-20T18:00:45.378Z,-2.51
2018-12-20T18:03:16.469Z,-2.77
2018-12-20T18:05:47.871Z,-2.73
2018-12-20T18:08:19.160Z,-2.62
2018-12-20T18:10:50.150Z,-2.62
2018-12-20T18:13:21.348Z,-2.60
2018-12-20T18:15:58.057Z,-2.45
2018-12-20T18:18:29.274Z,-2.22
2018-12-20T18:21:05.391Z,-2.23
2018-12-20T18:23:44.683Z,-2.90
2018-12-20T18:29:29.306Z,-3.07
2018-12-20T18:32:08.129Z,-2.81
2018-12-20T18:34:52.748Z,-2.71
2018-12-20T18:37:25.347Z,-2.58
2018-12-20T18:39:56.962Z,-2.51
2018-12-20T18:42:43.968Z,-3.15
2018-12-20T18:45:15.907Z,-3.52
2018-12-20T18:47:46.969Z,-3.46
2018-12-20T18:50:18.698Z,-3.49
2018-12-20T18:52:49.952Z,-3.78
2018-12-20T18:55:21.064Z,-3.35
2018-12-20T18:57:52.144Z,-3.38
2018-12-20T19:00:24.234Z,-3.12
2018-12-20T19:02:55.459Z,-2.88
2018-12-20T19:05:27.582Z,-2.78
2018-12-20T19:07:59.382Z,-2.78
2018-12-20T19:10:30.412Z,-2.82
2018-12-20T19:13:01.474Z,-2.75
2018-12-20T19:15:32.663Z,-2.59
2018-12-20T19:18:03.760Z,-2.53
2018-12-20T19:20:34.997Z,-2.53
2018-12-20T19:24:30.225Z,-2.74
2018-12-20T19:27:01.458Z,-1.32
2018-12-20T19:29:32.557Z,-1.97
2018-12-20T19:32:03.719Z,-2.18
2018-12-20T19:34:34.798Z,-2.92
2018-12-20T19:37:06.145Z,-3.14
2018-12-20T19:39:37.938Z,-3.00
2018-12-20T19:42:13.066Z,-3.40
2018-12-20T19:44:44.005Z,-3.26
2018-12-20T19:47:15.186Z,-2.80
2018-12-20T19:49:46.266Z,-2.60
2018-12-20T19:52:17.901Z,-2.44
2018-12-20T19:54:48.934Z,-2.38
2018-12-20T19:57:22.185Z,-2.33
2018-12-20T19:59:53.259Z,-2.35
2018-12-20T20:02:24.576Z,-2.31
2018-12-20T20:04:56.367Z,-2.83
2018-12-20T20:07:28.349Z,-2.98
2018-12-20T20:09:59.877Z,-2.86
2018-12-20T20:12:31.057Z,-2.91
2018-12-20T20:15:02.050Z,-2.55
2018-12-20T20:17:33.260Z,-2.95
2018-12-20T20:20:13.519Z,-3.15
2018-12-20T20:22:38.395Z,-3.18
2018-12-20T20:25:09.561Z,-2.91
2018-12-20T20:27:40.987Z,-2.42
2018-12-20T20:30:14.459Z,-2.35
2018-12-20T20:32:45.818Z,-2.19
2018-12-20T20:35:16.748Z,-2.24
2018-12-20T20:37:48.004Z,-2.13
2018-12-20T20:40:19.039Z,-2.04
2018-12-20T20:42:50.671Z,-1.90
2018-12-20T20:45:21.647Z,-1.86
2018-12-20T20:47:52.784Z,-1.83
2018-12-20T20:50:24.007Z,-1.71
2018-12-20T20:52:55.512Z,-1.65
2018-12-20T20:55:26.500Z,-1.76
2018-12-20T20:57:57.685Z,-1.68
2018-12-20T21:00:34.390Z,-1.72
2018-12-20T21:03:10.712Z,-1.62
2018-12-20T21:05:46.856Z,-1.59
2018-12-20T21:08:22.731Z,-1.66
2018-12-20T21:10:58.867Z,-1.51
2018-12-20T21:13:35.018Z,-1.61
2018-12-20T21:16:11.302Z,-1.69
2018-12-20T21:18:47.371Z,-1.71
2018-12-20T21:21:23.243Z,-1.75
2018-12-20T21:23:59.545Z,-1.79
2018-12-20T21:26:35.895Z,-1.83
2018-12-20T21:29:12.240Z,-1.76
2018-12-20T21:31:48.285Z,-1.81
2018-12-20T21:34:24.399Z,-1.73
2018-12-20T21:37:00.383Z,-1.81
2018-12-20T21:39:36.521Z,-2.25
2018-12-20T21:42:12.707Z,-2.19
2018-12-20T21:44:48.937Z,-2.07
2018-12-20T21:47:24.937Z,-2.07
2018-12-20T21:50:01.047Z,-2.01
2018-12-20T21:52:37.396Z,-2.04
2018-12-20T21:55:13.523Z,-2.01
2018-12-20T21:57:44.571Z,-2.00
2018-12-20T22:00:15.818Z,-1.90
2018-12-20T22:02:46.883Z,-1.86
2018-12-20T22:05:18.057Z,-1.77
2018-12-20T22:07:49.243Z,-1.83
2018-12-20T22:10:20.371Z,-1.75
2018-12-20T22:12:50.838Z,-1.77
2018-12-20T22:15:27.024Z,-1.88
2018-12-20T22:18:02.959Z,-1.88
2018-12-20T22:20:47.078Z,-1.69
2018-12-20T22:23:17.238Z,-1.80
2018-12-20T22:25:53.364Z,-1.82
2018-12-20T22:28:29.229Z,-1.84
2018-12-20T22:31:05.908Z,-1.84
2018-12-20T22:33:41.765Z,-1.82
2018-12-20T22:36:18.166Z,-1.80
2018-12-20T22:38:54.193Z,-1.70
2018-12-20T22:41:30.729Z,-1.87
2018-12-20T22:44:06.925Z,-2.08
2018-12-20T22:46:43.028Z,-2.00
2018-12-20T22:49:19.046Z,-1.86
2018-12-20T22:51:55.248Z,-1.86
2018-12-20T22:54:31.184Z,-1.77
2018-12-20T22:57:07.316Z,-1.85
2018-12-20T22:59:43.606Z,-1.68
2018-12-20T23:02:19.699Z,-1.91
2018-12-20T23:04:55.774Z,-1.89
2018-12-20T23:07:31.795Z,-1.82
2018-12-20T23:10:08.668Z,-1.77
2018-12-20T23:12:44.554Z,-1.70
2018-12-20T23:15:20.586Z,-1.71
2018-12-20T23:17:56.678Z,-1.67
2018-12-20T23:20:33.211Z,-1.63
2018-12-20T23:23:09.418Z,-1.55
2018-12-20T23:25:45.441Z,-1.52
2018-12-20T23:28:21.541Z,-1.62
2018-12-20T23:30:57.572Z,-1.57
2018-12-20T23:33:33.501Z,-1.62
2018-12-20T23:36:09.715Z,-1.84
2018-12-20T23:38:45.770Z,-1.69
2018-12-20T23:41:22.102Z,-2.16
2018-12-20T23:43:57.986Z,-2.10
2018-12-20T23:46:34.230Z,-2.02
2018-12-20T23:49:10.332Z,-2.19
2018-12-20T23:51:46.340Z,-2.15
2018-12-20T23:54:22.473Z,-1.89
2018-12-20T23:56:58.473Z,-1.76
2018-12-20T23:59:34.613Z,-1.57
